• Join FlightAware (Why Join?)
  • Login
  • US Flag 
02:45AM EDT


 

Airport Tracker/Info


-or-


 

Live Flight TrackerFlight Track Log ✈ CHQ4986 ✈ 05-Oct-2013 ✈ KALB - KORD

Flight Track Log - Related Links

Times and Time Zones

All times are in EDT time to prevent confusion due to time zone crossing. See the CHQ4986 flight status page for this flight to view local times or setup timezone preferences in your user account.

Time Position Orientation Groundspeed Altitude Reporting Facility
EDT Latitude Longitude Course Direction KTS MPH feet Rate Location/Type
02:34PM 42.7194 -73.8106 285° West 178 205 1,300  Level Boston Center
02:35PM 42.7186 -73.8644 269° West 203 234 2,900 1,800 Climbing Boston Center
02:36PM 42.7847 -73.9197 328° Northwest 216 249 5,600 1,980 Climbing Boston Center
02:37PM 42.7516 -74.2632 281° West  Level Estimated
02:37PM 42.8383 -73.9633 329° Northwest 216 249 7,600  Level Boston Center
02:38PM 42.7819 -74.3710 291° West  Level FlightAware Approximate
02:38PM 42.8878 -74.0014 331° Northwest 223 257 9,600  Level Boston Center
02:39PM 42.8121 -74.4788 291° West  Level FlightAware Approximate
02:39PM 42.9517 -74.0569 328° Northwest 235 270 10,800  Level Boston Center
02:40PM 42.8117 -74.5942 285° West  Level Estimated
02:40PM 42.9731 -74.1511 287° West 255 293 11,700  Level Boston Center
02:41PM 42.9858 -74.2764 278° West 289 333 12,800 960 Climbing Boston Center
02:42PM 42.9967 -74.3847 278° West 317 365 13,700 900 Climbing Boston Center
02:43PM 43.0086 -74.5242 277° West 334 384 14,700 960 Climbing Boston Center
02:44PM 43.0211 -74.6383 279° West 334 384 15,700 1,140 Climbing Boston Center
02:45PM 43.0350 -74.7808 278° West 340 391 17,000 1,260 Climbing Boston Center
02:46PM 43.0472 -74.8950 278° West 340 391 18,200 1,320 Climbing Boston Center
02:47PM 43.0569 -75.0147 276° West 335 386 19,700 1,260 Climbing Boston Center
02:48PM 43.0689 -75.1344 278° West 330 380 20,800 1,020 Climbing Boston Center
02:49PM 43.0783 -75.2600 276° West 330 380 21,800 900 Climbing Boston Center
02:50PM 43.0894 -75.3969 276° West 330 380 22,700 960 Climbing Boston Center
02:51PM 43.1028 -75.5228 278° West 335 386 23,700 960 Climbing Boston Center
02:52PM 43.1139 -75.6486 277° West 335 386 24,700 960 Climbing Boston Center
02:53PM 43.1250 -75.7744 277° West 335 386 25,700 960 Climbing Boston Center
02:54PM 43.1358 -75.9003 277° West 330 380 26,700 600 Climbing Boston Center
02:55PM 43.1464 -76.0261 277° West 335 386 27,000 120 Climbing Boston Center
02:56PM 43.1586 -76.1633 277° West 346 398 27,000 240 Level Boston Center
02:57PM 43.1603 -76.3031 271° West 362 417 27,500 660 Climbing Boston Center
02:58PM 43.1586 -76.4069 269° West 367 422 28,300 780 Climbing Cleveland Center
02:59PM 43.1581 -76.5406 270° West 356 410 29,000 780 Climbing Cleveland Center
03:00PM 43.1572 -76.6753 270° West 352 405 29,900 480 Climbing Cleveland Center
03:01PM 43.1561 -76.8131 269° West 355 409 30,000  Climbing Cleveland Center
03:02PM 43.1542 -76.9861 269° West 378 435 30,000  Level Cleveland Center
03:04PM 43.1333 -77.2500 264° West 390 449 30,000  Level Toronto Center
03:05PM 43.1333 -77.4000 270° West 390 449 30,000  Level Toronto Center
03:06PM 43.1500 -77.5500 279° West 390 449 30,000  Level Toronto Center
03:07PM 43.1444 -77.7289 268° West 394 453 30,000  Level Cleveland Center
03:09PM 43.1411 -77.9078 269° West 395 455 30,000  Level Cleveland Center
03:10PM 43.1389 -78.0578 269° West 396 456 30,000  Level Cleveland Center
03:11PM 43.1356 -78.2083 268° West 399 459 30,000  Level Cleveland Center
03:12PM 43.1331 -78.3569 269° West 394 453 30,000  Level Cleveland Center
03:13PM 43.1292 -78.5061 268° West 394 453 30,000  Level Cleveland Center
03:14PM 43.1242 -78.6592 267° West 403 464 30,000  Level Cleveland Center
03:15PM 43.1200 -78.8372 268° West 393 452 30,000  Level Cleveland Center
03:15PM 43.1167 -78.9000 266° West 390 449 30,000  Level Toronto Center
03:16PM 43.1000 -79.0667 262° West 390 449 30,000  Level Toronto Center
03:17PM 43.1000 -79.2000 270° West 390 449 30,000  Level Toronto Center
03:18PM 43.1000 -79.3667 270° West 390 449 30,000  Level Toronto Center
03:19PM 43.1000 -79.5000 270° West 400 460 30,000  Level Toronto Center
03:20PM 43.0833 -79.6500 261° West 400 460 30,000  Level Toronto Center
03:21PM 43.0833 -79.8167 270° West 400 460 30,000  Level Toronto Center
03:22PM 43.0833 -79.9833 270° West 400 460 30,000  Level Toronto Center
03:23PM 43.0667 -80.1167 260° West 390 449 30,000  Level Toronto Center
03:24PM 43.0667 -80.2500 270° West 390 449 30,000  Level Toronto Center
03:25PM 43.0667 -80.4167 270° West 390 449 30,000  Level Toronto Center
03:26PM 43.0500 -80.5667 261° West 400 460 30,000  Level Toronto Center
03:27PM 43.0500 -80.7000 270° West 390 449 30,000  Level Toronto Center
03:28PM 43.0333 -80.8667 262° West 390 449 30,000  Level Toronto Center
03:29PM 43.0167 -81.0000 260° West 390 449 30,000  Level Toronto Center
03:30PM 43.0167 -81.1667 270° West 400 460 30,000  Level Toronto Center
03:31PM 43.0167 -81.3167 270° West 400 460 30,000  Level Toronto Center
03:32PM 43.0167 -81.4500 270° West 400 460 30,000  Level Toronto Center
03:33PM 43.0167 -81.6167 270° West 400 460 30,000  Level Toronto Center
03:34PM 43.0167 -81.7500 270° West 400 460 30,000  Level Toronto Center
03:35PM 43.0000 -81.9167 262° West 400 460 30,000  Level Toronto Center
03:36PM 43.0000 -82.0667 270° West 400 460 30,000  Level Toronto Center
03:37PM 43.0000 -82.2333 270° West 400 460 30,000  Level Toronto Center
03:38PM 43.0000 -82.3667 270° West 400 460 30,000  Level Toronto Center
03:39PM 43.0000 -82.5333 270° West 400 460 30,000  Level Toronto Center
03:40PM 42.9833 -82.6833 261° West 400 460 30,000  Level Toronto Center
03:41PM 42.9833 -82.8167 270° West 410 472 30,000  Level Toronto Center
03:42PM 42.9833 -82.9833 270° West 410 472 30,000  Level Toronto Center
03:43PM 42.9864 -83.1442 272° West 405 466 30,000  Level Cleveland Center
03:44PM 42.9833 -83.2972 268° West 406 467 30,000  Level Cleveland Center
03:46PM 42.9761 -83.4803 267° West 406 467 30,000  Level Cleveland Center
03:47PM 42.9706 -83.6328 267° West 404 465 30,000  Level Cleveland Center
03:48PM 42.9622 -83.7861 266° West 408 470 30,000  Level Cleveland Center
03:49PM 42.9469 -83.9378 262° West 409 471 30,000  Level Cleveland Center
03:50PM 42.9333 -84.0894 263° West 406 467 30,000  Level Cleveland Center
03:51PM 42.9186 -84.2431 263° West 410 472 30,000  Level Cleveland Center
03:52PM 42.9019 -84.4083 262° West 409 471 30,000  Level Cleveland Center
03:53PM 42.8864 -84.5619 262° West 409 471 30,000  Level Cleveland Center
03:54PM 42.8681 -84.7453 262° West 408 470 30,000  Level Cleveland Center
03:54PM 42.8500 -84.8167 251° West 410 472 30,000  Level Toronto Center
03:55PM 42.8444 -84.9606 267° West 410 472 30,000  Level Chicago Center
03:56PM 42.8283 -85.1125 262° West 407 468 30,000  Level Chicago Center
03:57PM 42.8119 -85.2664 262° West 411 473 30,000 -780 Level Chicago Center
03:58PM 42.7953 -85.4183 262° West 407 468 28,500 -1,920 Descending Chicago Center
03:59PM 42.7664 -85.6069 258° West 422 486 26,100 -1,740 Descending Chicago Center
04:00PM 42.7400 -85.7544 256° West 406 467 25,000 -1,260 Descending Chicago Center
04:01PM 42.7175 -85.8761 256° West 340 391 23,500 -1,680 Descending Chicago Center
04:02PM 42.6967 -85.9925 256° West 322 371 21,600 -1,620 Descending Chicago Center
04:03PM 42.6769 -86.1028 256° West 306 352 20,300 -840 Descending Chicago Center
04:05PM 42.6558 -86.2156 256° West 305 351 20,000 -660 Descending Chicago Center
04:06PM 42.6319 -86.3428 256° West 336 387 19,000 -1,500 Descending Chicago Center
04:07PM 42.6064 -86.4789 256° West 367 422 17,000 -2,100 Descending Chicago Center
04:08PM 42.5753 -86.6406 255° West 369 425 14,800 -1,860 Descending Chicago Center
04:09PM 42.5478 -86.7769 255° West 375 432 13,300 -1,680 Descending Chicago Center
04:10PM 42.5114 -86.9036 249° West 366 421 11,400 -1,500 Descending Chicago Center
04:11PM 42.4794 -87.0242 250° West 349 402 10,300 -960 Descending Chicago Center
04:12PM 42.4489 -87.1297 249° West 310 357 9,500 -1,200 Descending Chicago Center
04:13PM 42.4233 -87.2219 249° West 274 315 7,900 -1,680 Descending Chicago Center
04:14PM 42.3939 -87.3108 246° West 267 307 6,100 -960 Descending Chicago Center
04:15PM 42.3150 -87.3444 197° South 252 290 6,000 -60 Descending Chicago Center
04:16PM 42.2464 -87.3733 197° South 258 297 6,000 -300 Level Chicago Center
04:17PM 42.1764 -87.3925 191° South 258 297 5,400 -900 Descending Chicago Center
04:18PM 42.1072 -87.4039 187° South 253 291 4,200 -720 Descending Chicago Center
04:19PM 42.0392 -87.4167 188° South 249 287 4,000 -120 Descending Chicago Center
04:20PM 42.0044 -87.4897 237° Southwest 260 299 4,000  Level Chicago Center
04:21PM 42.0014 -87.6033 268° West 256 295 4,000 -60 Level Chicago Center
04:22PM 42.0000 -87.6667 268° West 256 295 3,900 -840 Descending Chicago TRACON
04:23PM 42.0000 -87.7667 270° West 227 261 2,600 -1,140 Descending Chicago TRACON
04:24PM 42.0000 -87.8333 270° West 180 207 1,600 -1,020 Descending Chicago TRACON